Grand Ruby — 3EIU3 — position and weather

sailwx.info

Track history (hours):
 
Tides and Currents Weather Stations Pressure Air Temp Water Temp Dewpoint Dewpoint Depression Visibility Wind Speed Wind Dir Waves Ship Positions

Grand Ruby

Last reported at 2016-Nov-08 23:32 UTC. Time now 2016-Dec-10 16:38 UTC.
Position N 30°42' W 119°31'.
Warning: this ship's position is 31 days out of date.

Length 199 m; draft 7.8 m.

Type: Cargo ship. MMSI: 372399000.

Date/timePositionNaut miles runAvg speedWind from/ knotsBaromVisibWave heightAir tempDewpointWater temp
2016-Nov-08 23:32N 30°42' W 119°31'1515.9
2016-Nov-08 22:34N 30°44' W 119°13'1615.9
2016-Nov-08 21:34N 30°46' W 118°55'1615.7
2016-Nov-08 20:33N 30°49' W 118°37'8215.9
2016-Nov-08 15:23N 31°58' W 117°44'52 8.9
2016-Nov-08 09:33N 32°39' W 117°07'0 0.0
2016-Nov-08 06:33N 32°39' W 117°07'0 0.0
2016-Nov-08 04:33N 32°39' W 117°07'0 0.0
2016-Nov-08 00:33N 32°39' W 117°07'0 0.0
2016-Nov-07 23:33N 32°39' W 117°07'0 0.0
2016-Nov-07 19:33N 32°39' W 117°07'0 0.0
2016-Nov-07 17:33N 32°39' W 117°07'0 0.0
2016-Nov-07 16:33N 32°39' W 117°07'0 0.0
2016-Nov-07 15:33N 32°39' W 117°07'0 0.0
2016-Nov-07 14:33N 32°39' W 117°07'0 0.0
2016-Nov-07 13:33N 32°39' W 117°07'0 0.0
2016-Nov-07 09:33N 32°39' W 117°07'0 0.0
2016-Nov-07 08:27N 32°39' W 117°07'0 0.0
2016-Nov-07 07:33N 32°39' W 117°07'0 0.0
2016-Nov-07 06:33N 32°39' W 117°07'0 0.0
2016-Nov-07 05:33N 32°39' W 117°07'0 0.0
2016-Nov-07 02:30N 32°39' W 117°07'0 0.0
2016-Nov-07 01:33N 32°39' W 117°07'0 0.0
2016-Nov-06 22:33N 32°39' W 117°07'0 0.0
2016-Nov-06 20:33N 32°39' W 117°07'0 0.0
2016-Nov-06 19:33N 32°39' W 117°07'0 0.0
2016-Nov-06 17:33N 32°39' W 117°07'0 0.0
2016-Nov-06 15:33N 32°39' W 117°07'0 0.0
2016-Nov-06 13:33N 32°39' W 117°07'0 0.0
2016-Nov-06 12:33N 32°39' W 117°07'0 0.0
2016-Nov-06 11:33N 32°39' W 117°07'0 0.0
2016-Nov-06 10:33N 32°39' W 117°07'0 0.0
2016-Nov-06 08:30N 32°39' W 117°07'0 0.0
2016-Nov-06 07:33N 32°39' W 117°07'0 0.0
2016-Nov-05 23:33N 32°39' W 117°07'0 0.0
2016-Nov-05 21:33N 32°39' W 117°07'0 0.0
2016-Nov-05 20:42N 32°39' W 117°07'0 0.0
2016-Nov-05 20:33N 32°39' W 117°07'0 0.0
2016-Nov-05 16:33N 32°39' W 117°07'0 0.0
2016-Nov-05 12:33N 32°39' W 117°07'0 0.0
2016-Nov-05 11:33N 32°39' W 117°07'0 0.0
2016-Nov-05 10:33N 32°39' W 117°07'0 0.0
2016-Nov-05 09:33N 32°39' W 117°07'0 0.0
2016-Nov-05 08:33N 32°39' W 117°07'0 0.0
2016-Nov-05 07:30N 32°39' W 117°07'0 0.0
2016-Nov-05 04:33N 32°39' W 117°07'0 0.0
2016-Nov-05 02:33N 32°39' W 117°07'0 0.0
2016-Nov-05 01:33N 32°39' W 117°07'0 0.0
2016-Nov-04 23:30N 32°39' W 117°07'0 0.0
2016-Nov-04 22:33N 32°39' W 117°07'0 0.0
2016-Nov-04 21:33N 32°39' W 117°07'0 0.0
2016-Nov-04 20:30N 32°39' W 117°07'0 0.0
2016-Nov-04 18:30N 32°39' W 117°07'0 0.0
2016-Nov-04 16:33N 32°39' W 117°07'0 0.0
2016-Nov-04 14:33N 32°39' W 117°07'6 3.2
2016-Nov-04 12:33N 32°36' W 117°14'3 0.6
2016-Nov-04 08:33N 32°37' W 117°11'0 0.0
2016-Nov-04 07:32N 32°37' W 117°11'0 0.0
2016-Nov-04 06:33N 32°37' W 117°11'  
2016-Nov-01 03:27N 38°03' W 122°08'0 0.0
2016-Nov-01 02:33N 38°03' W 122°08'0 0.0
2016-Nov-01 00:15N 38°03' W 122°08'0 0.0
2016-Oct-31 23:33N 38°03' W 122°08'0 0.0
2016-Oct-31 22:33N 38°03' W 122°08'0 0.0
2016-Oct-31 20:27N 38°03' W 122°08'0 0.0
2016-Oct-31 19:33N 38°03' W 122°08'0 0.0
2016-Oct-31 18:33N 38°03' W 122°08'0 0.0
2016-Oct-31 13:27N 38°03' W 122°08'0 0.0
2016-Oct-31 12:27N 38°03' W 122°08'0 0.0
2016-Oct-31 10:21N 38°03' W 122°08'0 0.0
2016-Oct-31 09:33N 38°03' W 122°08'0 0.0
2016-Oct-31 08:27N 38°03' W 122°08'0 0.0
2016-Oct-31 07:33N 38°03' W 122°08'0 0.0
2016-Oct-31 06:33N 38°03' W 122°08'0 0.0
2016-Oct-31 03:27N 38°03' W 122°08'4 0.5
2016-Oct-30 20:31N 38°04' W 122°13'64 9.2
2016-Oct-30 13:33N 38°08' W 123°34'1716.8
2016-Oct-30 12:33N 38°06' W 123°55'  
Track history (hours):
 
Tides and Currents Weather Stations Pressure Air Temp Water Temp Dewpoint Dewpoint Depression Visibility Wind Speed Wind Dir Waves Ship Positions

Grand Ruby

Last reported at 2016-Nov-08 23:32 UTC. Time now 2016-Dec-10 16:38 UTC.
Position N 30°42' W 119°31'.
Warning: this ship's position is 31 days out of date.

Length 199 m; draft 7.8 m.

Type: Cargo ship. MMSI: 372399000.

Date/timePositionNaut miles runAvg speedWind from/ knotsBaromVisibWave heightAir tempDewpointWater temp
2016-Nov-08 23:32N 30°42' W 119°31'1515.9
2016-Nov-08 22:34N 30°44' W 119°13'1615.9
2016-Nov-08 21:34N 30°46' W 118°55'1615.7
2016-Nov-08 20:33N 30°49' W 118°37'8215.9
2016-Nov-08 15:23N 31°58' W 117°44'52 8.9
2016-Nov-08 09:33N 32°39' W 117°07'0 0.0
2016-Nov-08 06:33N 32°39' W 117°07'0 0.0
2016-Nov-08 04:33N 32°39' W 117°07'0 0.0
2016-Nov-08 00:33N 32°39' W 117°07'0 0.0
2016-Nov-07 23:33N 32°39' W 117°07'0 0.0
2016-Nov-07 19:33N 32°39' W 117°07'0 0.0
2016-Nov-07 17:33N 32°39' W 117°07'0 0.0
2016-Nov-07 16:33N 32°39' W 117°07'0 0.0
2016-Nov-07 15:33N 32°39' W 117°07'0 0.0
2016-Nov-07 14:33N 32°39' W 117°07'0 0.0
2016-Nov-07 13:33N 32°39' W 117°07'0 0.0
2016-Nov-07 09:33N 32°39' W 117°07'0 0.0
2016-Nov-07 08:27N 32°39' W 117°07'0 0.0
2016-Nov-07 07:33N 32°39' W 117°07'0 0.0
2016-Nov-07 06:33N 32°39' W 117°07'0 0.0
2016-Nov-07 05:33N 32°39' W 117°07'0 0.0
2016-Nov-07 02:30N 32°39' W 117°07'0 0.0
2016-Nov-07 01:33N 32°39' W 117°07'0 0.0
2016-Nov-06 22:33N 32°39' W 117°07'0 0.0
2016-Nov-06 20:33N 32°39' W 117°07'0 0.0
2016-Nov-06 19:33N 32°39' W 117°07'0 0.0
2016-Nov-06 17:33N 32°39' W 117°07'0 0.0
2016-Nov-06 15:33N 32°39' W 117°07'0 0.0
2016-Nov-06 13:33N 32°39' W 117°07'0 0.0
2016-Nov-06 12:33N 32°39' W 117°07'0 0.0
2016-Nov-06 11:33N 32°39' W 117°07'0 0.0
2016-Nov-06 10:33N 32°39' W 117°07'0 0.0
2016-Nov-06 08:30N 32°39' W 117°07'0 0.0
2016-Nov-06 07:33N 32°39' W 117°07'0 0.0
2016-Nov-05 23:33N 32°39' W 117°07'0 0.0
2016-Nov-05 21:33N 32°39' W 117°07'0 0.0
2016-Nov-05 20:42N 32°39' W 117°07'0 0.0
2016-Nov-05 20:33N 32°39' W 117°07'0 0.0
2016-Nov-05 16:33N 32°39' W 117°07'0 0.0
2016-Nov-05 12:33N 32°39' W 117°07'0 0.0
2016-Nov-05 11:33N 32°39' W 117°07'0 0.0
2016-Nov-05 10:33N 32°39' W 117°07'0 0.0
2016-Nov-05 09:33N 32°39' W 117°07'0 0.0
2016-Nov-05 08:33N 32°39' W 117°07'0 0.0
2016-Nov-05 07:30N 32°39' W 117°07'0 0.0
2016-Nov-05 04:33N 32°39' W 117°07'0 0.0
2016-Nov-05 02:33N 32°39' W 117°07'0 0.0
2016-Nov-05 01:33N 32°39' W 117°07'0 0.0
2016-Nov-04 23:30N 32°39' W 117°07'0 0.0
2016-Nov-04 22:33N 32°39' W 117°07'0 0.0
2016-Nov-04 21:33N 32°39' W 117°07'0 0.0
2016-Nov-04 20:30N 32°39' W 117°07'0 0.0
2016-Nov-04 18:30N 32°39' W 117°07'0 0.0
2016-Nov-04 16:33N 32°39' W 117°07'0 0.0
2016-Nov-04 14:33N 32°39' W 117°07'6 3.2
2016-Nov-04 12:33N 32°36' W 117°14'3 0.6
2016-Nov-04 08:33N 32°37' W 117°11'0 0.0
2016-Nov-04 07:32N 32°37' W 117°11'0 0.0
2016-Nov-04 06:33N 32°37' W 117°11'  
2016-Nov-01 03:27N 38°03' W 122°08'0 0.0
2016-Nov-01 02:33N 38°03' W 122°08'0 0.0
2016-Nov-01 00:15N 38°03' W 122°08'0 0.0
2016-Oct-31 23:33N 38°03' W 122°08'0 0.0
2016-Oct-31 22:33N 38°03' W 122°08'0 0.0
2016-Oct-31 20:27N 38°03' W 122°08'0 0.0
2016-Oct-31 19:33N 38°03' W 122°08'0 0.0
2016-Oct-31 18:33N 38°03' W 122°08'0 0.0
2016-Oct-31 13:27N 38°03' W 122°08'0 0.0
2016-Oct-31 12:27N 38°03' W 122°08'0 0.0
2016-Oct-31 10:21N 38°03' W 122°08'0 0.0
2016-Oct-31 09:33N 38°03' W 122°08'0 0.0
2016-Oct-31 08:27N 38°03' W 122°08'0 0.0
2016-Oct-31 07:33N 38°03' W 122°08'0 0.0
2016-Oct-31 06:33N 38°03' W 122°08'0 0.0
2016-Oct-31 03:27N 38°03' W 122°08'4 0.5
2016-Oct-30 20:31N 38°04' W 122°13'64 9.2
2016-Oct-30 13:33N 38°08' W 123°34'1716.8
2016-Oct-30 12:33N 38°06' W 123°55'  

Dump ship's entire track history